createdAt,value
2022-12-08T00:01:56.786Z,71.95
2022-12-08T00:04:24.821Z,72.32
2022-12-08T00:07:20.438Z,71.62
2022-12-08T00:09:48.376Z,70.84
2022-12-08T00:12:16.791Z,70.54
2022-12-08T00:14:46.819Z,70.34
2022-12-08T00:17:16.418Z,69.89
2022-12-08T00:19:45.627Z,70.38
2022-12-08T00:22:15.337Z,70.63
2022-12-08T00:24:45.763Z,70.41
2022-12-08T00:27:18.122Z,70.69
2022-12-08T00:29:46.688Z,70.10
2022-12-08T00:32:14.847Z,69.79
2022-12-08T00:34:42.984Z,71.06
2022-12-08T00:37:10.938Z,71.13
2022-12-08T00:39:40.361Z,71.58
2022-12-08T00:42:15.489Z,71.22
2022-12-08T00:44:44.849Z,70.58
2022-12-08T00:47:14.045Z,71.67
2022-12-08T00:49:42.158Z,72.38
2022-12-08T00:52:10.249Z,72.30
2022-12-08T00:54:38.661Z,71.82
2022-12-08T00:57:08.177Z,70.85
2022-12-08T00:59:36.149Z,70.56
2022-12-08T01:02:04.172Z,70.90
2022-12-08T01:04:32.394Z,70.27
2022-12-08T01:07:00.441Z,69.94
2022-12-08T01:09:28.498Z,69.37
2022-12-08T01:11:57.051Z,69.91
2022-12-08T01:14:26.613Z,69.43
2022-12-08T01:16:54.779Z,69.63
2022-12-08T01:19:22.812Z,70.14
2022-12-08T01:21:50.858Z,70.66
2022-12-08T01:24:20.954Z,70.95
2022-12-08T01:26:49.744Z,70.16
2022-12-08T01:29:18.394Z,70.70
2022-12-08T01:31:48.067Z,69.74
2022-12-08T01:34:16.410Z,70.05
2022-12-08T01:36:44.964Z,70.03
2022-12-08T01:39:16.592Z,70.32
2022-12-08T01:41:46.470Z,70.87
2022-12-08T01:44:56.061Z,70.37
2022-12-08T01:47:31.020Z,70.87
2022-12-08T01:49:59.406Z,70.56
2022-12-08T01:52:34.139Z,70.52
2022-12-08T01:55:07.358Z,72.14
2022-12-08T01:57:40.541Z,71.52
2022-12-08T02:00:11.377Z,70.88
2022-12-08T02:02:50.977Z,70.50
2022-12-08T02:05:22.225Z,70.52
2022-12-08T02:07:50.989Z,70.13
2022-12-08T02:10:21.048Z,71.21
2022-12-08T02:12:51.915Z,70.54
2022-12-08T02:15:20.266Z,70.48
2022-12-08T02:18:08.537Z,71.17
2022-12-08T02:20:51.225Z,71.10
2022-12-08T02:23:28.603Z,71.22
2022-12-08T02:26:33.130Z,70.86
2022-12-08T02:29:26.938Z,71.38
2022-12-08T02:32:13.507Z,72.51
2022-12-08T02:34:48.739Z,72.21
2022-12-08T02:37:24.345Z,72.11
2022-12-08T02:39:59.762Z,70.84
2022-12-08T02:42:34.090Z,70.79
2022-12-08T02:45:06.507Z,70.11
2022-12-08T02:47:35.596Z,69.77
2022-12-08T02:50:05.843Z,69.82
2022-12-08T02:52:41.812Z,69.31
2022-12-08T02:55:16.193Z,69.60
2022-12-08T02:58:00.079Z,70.21
2022-12-08T03:00:37.473Z,69.30
2022-12-08T03:03:12.731Z,69.03
2022-12-08T03:05:55.463Z,69.03
2022-12-08T03:08:29.598Z,68.68
2022-12-08T03:11:03.279Z,68.79
2022-12-08T03:13:37.022Z,69.09
2022-12-08T03:16:09.580Z,69.43
2022-12-08T03:18:44.134Z,68.93
2022-12-08T03:21:16.658Z,68.85
2022-12-08T03:23:47.699Z,68.37
2022-12-08T03:26:20.626Z,68.78
2022-12-08T03:28:48.932Z,68.53
2022-12-08T03:31:19.639Z,69.80
2022-12-08T03:33:53.226Z,70.61
2022-12-08T03:36:23.620Z,69.94
2022-12-08T03:38:55.401Z,69.53
2022-12-08T03:41:23.959Z,70.06
2022-12-08T03:43:53.786Z,69.53
2022-12-08T03:48:50.363Z,70.17
2022-12-08T03:51:19.432Z,69.99
2022-12-08T03:53:49.426Z,70.08
2022-12-08T03:56:23.921Z,69.54
2022-12-08T03:58:52.334Z,70.07
2022-12-08T04:01:20.561Z,69.83
2022-12-08T04:03:49.127Z,69.85
2022-12-08T04:06:17.427Z,70.09
2022-12-08T04:08:45.654Z,68.95
2022-12-08T04:11:15.204Z,69.30
2022-12-08T04:13:43.867Z,69.00
2022-12-08T04:16:17.153Z,69.12
2022-12-08T04:18:45.860Z,69.28
2022-12-08T04:21:14.401Z,69.35
2022-12-08T04:23:44.698Z,69.21
2022-12-08T04:26:16.511Z,69.22
2022-12-08T04:28:45.110Z,69.98
2022-12-08T04:31:13.393Z,69.57
2022-12-08T04:33:41.378Z,70.24
2022-12-08T04:36:10.541Z,70.80
2022-12-08T04:38:38.748Z,71.53
2022-12-08T04:41:06.988Z,71.35
2022-12-08T04:43:36.757Z,70.28
2022-12-08T04:46:08.637Z,69.68
2022-12-08T04:48:39.108Z,69.90
2022-12-08T04:51:17.558Z,70.15
2022-12-08T04:53:46.991Z,70.35
2022-12-08T04:56:15.884Z,71.41
2022-12-08T04:58:45.580Z,71.76
2022-12-08T05:01:14.821Z,71.90
2022-12-08T05:03:43.094Z,71.74
2022-12-08T05:06:13.088Z,71.02
2022-12-08T05:08:41.088Z,72.35
2022-12-08T05:11:12.018Z,72.21
2022-12-08T05:13:40.231Z,71.99
2022-12-08T05:16:12.291Z,71.73
2022-12-08T05:18:41.603Z,70.74
2022-12-08T05:21:10.030Z,70.89
2022-12-08T05:23:38.157Z,69.80
2022-12-08T05:26:06.616Z,69.95
2022-12-08T05:28:43.376Z,69.29
2022-12-08T05:31:14.713Z,69.34
2022-12-08T05:33:42.945Z,69.35
2022-12-08T05:36:13.033Z,69.42
2022-12-08T05:38:41.302Z,69.37
2022-12-08T05:41:10.687Z,68.77
2022-12-08T05:43:38.895Z,68.92
2022-12-08T05:46:08.780Z,68.68
2022-12-08T05:48:38.418Z,69.14
2022-12-08T05:51:09.479Z,68.62
2022-12-08T05:53:37.517Z,68.81
2022-12-08T05:56:06.351Z,68.77
2022-12-08T05:58:34.469Z,68.65
2022-12-08T06:01:03.261Z,69.36
2022-12-08T06:03:31.302Z,68.91
2022-12-08T06:06:00.728Z,68.41
2022-12-08T06:08:28.950Z,69.31
2022-12-08T06:10:56.959Z,69.70
2022-12-08T06:13:24.936Z,69.79
2022-12-08T06:15:52.955Z,69.67
2022-12-08T06:18:20.931Z,69.21
2022-12-08T06:20:49.432Z,69.12
2022-12-08T06:23:18.941Z,69.58
2022-12-08T06:25:46.944Z,69.80
2022-12-08T06:28:15.114Z,70.26
2022-12-08T06:30:43.175Z,70.08
2022-12-08T06:33:11.108Z,70.49
2022-12-08T06:35:39.210Z,70.52
2022-12-08T06:38:07.460Z,70.63
2022-12-08T06:40:36.994Z,70.35
2022-12-08T06:43:05.020Z,70.58
2022-12-08T06:45:33.270Z,70.75
2022-12-08T06:48:03.124Z,71.03
2022-12-08T06:50:32.640Z,70.84
2022-12-08T06:53:05.230Z,71.18
2022-12-08T06:55:57.865Z,71.06
2022-12-08T06:58:23.727Z,71.14
2022-12-08T07:00:51.854Z,70.65
2022-12-08T07:03:20.048Z,70.40
2022-12-08T07:05:48.219Z,71.25
2022-12-08T07:08:16.596Z,71.14
2022-12-08T07:10:44.570Z,71.24
2022-12-08T07:13:12.593Z,70.81
2022-12-08T07:15:42.069Z,70.18
2022-12-08T07:18:10.145Z,70.00
2022-12-08T07:20:38.305Z,69.74
2022-12-08T07:23:06.258Z,69.99
2022-12-08T07:25:34.272Z,69.93
2022-12-08T07:28:02.298Z,69.43
2022-12-08T07:30:30.534Z,69.49
2022-12-08T07:32:59.917Z,69.55
2022-12-08T07:35:27.936Z,69.21
2022-12-08T07:37:55.949Z,70.03
2022-12-08T07:40:24.098Z,70.16
2022-12-08T07:42:52.128Z,69.49
2022-12-08T07:45:20.233Z,69.63
2022-12-08T07:47:48.600Z,69.62
2022-12-08T07:50:17.993Z,69.44
2022-12-08T07:52:45.962Z,69.43
2022-12-08T07:55:13.975Z,69.14
2022-12-08T07:57:42.022Z,69.08
2022-12-08T08:00:12.628Z,68.49
2022-12-08T08:02:40.991Z,68.59
2022-12-08T08:05:10.445Z,68.67
2022-12-08T08:07:42.086Z,68.53
2022-12-08T08:10:11.878Z,68.67
2022-12-08T08:12:40.467Z,68.52
2022-12-08T08:15:10.482Z,68.78
2022-12-08T08:17:39.306Z,68.45
2022-12-08T08:20:08.774Z,68.41
2022-12-08T08:22:37.216Z,67.51
2022-12-08T08:25:07.532Z,67.55
2022-12-08T08:27:35.726Z,67.61
2022-12-08T08:30:04.089Z,67.37
2022-12-08T08:32:35.002Z,66.65
2022-12-08T08:35:03.806Z,67.03
2022-12-08T08:37:31.749Z,67.18
2022-12-08T08:39:59.846Z,67.36
2022-12-08T08:42:29.283Z,67.45
2022-12-08T08:44:57.274Z,67.02
2022-12-08T08:47:25.376Z,66.31
2022-12-08T08:49:53.329Z,66.36
2022-12-08T08:52:21.283Z,66.28
2022-12-08T08:54:49.476Z,66.25
2022-12-08T08:57:23.605Z,66.26
2022-12-08T08:59:55.183Z,66.16
2022-12-08T09:02:23.409Z,65.46
2022-12-08T09:04:52.635Z,65.23
2022-12-08T09:07:20.682Z,65.96
2022-12-08T09:09:48.721Z,64.96
2022-12-08T09:12:16.699Z,65.42
2022-12-08T09:14:44.673Z,65.34
2022-12-08T09:17:14.708Z,65.29
2022-12-08T09:19:42.746Z,64.68
2022-12-08T09:22:10.786Z,65.22
2022-12-08T09:24:39.051Z,64.27
2022-12-08T09:27:07.487Z,63.54
2022-12-08T09:29:36.581Z,62.62
2022-12-08T09:32:04.828Z,62.84
2022-12-08T09:34:34.389Z,63.48
2022-12-08T09:37:02.377Z,64.98
2022-12-08T09:39:30.420Z,64.99
2022-12-08T09:42:01.571Z,63.71
2022-12-08T09:44:48.975Z,64.70
2022-12-08T09:47:23.105Z,64.40
2022-12-08T09:49:59.517Z,62.30
2022-12-08T09:52:31.459Z,63.54
2022-12-08T09:55:02.559Z,61.91
2022-12-08T09:57:32.088Z,62.49
2022-12-08T10:00:06.069Z,61.89
2022-12-08T10:02:34.830Z,62.67
2022-12-08T10:05:04.338Z,63.04
2022-12-08T10:07:40.463Z,62.21
2022-12-08T10:10:22.109Z,61.96
2022-12-08T10:12:55.524Z,62.95
2022-12-08T10:15:43.046Z,62.64
2022-12-08T10:18:17.392Z,63.94
2022-12-08T10:20:49.414Z,63.32
2022-12-08T10:23:25.882Z,63.03
2022-12-08T10:26:00.499Z,63.69
2022-12-08T10:28:28.558Z,63.83
2022-12-08T10:30:56.729Z,62.34
2022-12-08T10:33:24.890Z,62.29
2022-12-08T10:35:56.388Z,61.33
2022-12-08T10:38:28.095Z,59.85
2022-12-08T10:41:02.758Z,60.39
2022-12-08T10:43:30.860Z,60.10
2022-12-08T10:46:11.106Z,59.58
2022-12-08T10:48:49.587Z,60.21
2022-12-08T10:51:29.850Z,60.36
2022-12-08T10:53:58.515Z,59.62
2022-12-08T10:56:29.612Z,59.75
2022-12-08T10:59:17.966Z,59.73
2022-12-08T11:01:48.739Z,58.70
2022-12-08T11:04:19.857Z,59.47
2022-12-08T11:06:51.005Z,59.11
2022-12-08T11:09:46.792Z,58.17
2022-12-08T11:12:16.621Z,58.79
2022-12-08T11:14:51.811Z,57.92
2022-12-08T11:17:29.718Z,57.54
2022-12-08T11:20:00.702Z,57.29
2022-12-08T11:22:33.146Z,57.65
2022-12-08T11:25:04.047Z,57.44
2022-12-08T11:27:35.746Z,57.71
2022-12-08T11:30:14.797Z,57.77
2022-12-08T11:32:45.930Z,58.11
2022-12-08T11:35:23.964Z,57.80
2022-12-08T11:38:13.561Z,57.92
2022-12-08T11:40:45.735Z,58.75
2022-12-08T11:43:20.522Z,59.25
2022-12-08T11:45:54.944Z,58.97
2022-12-08T11:48:31.239Z,58.73
2022-12-08T11:51:05.086Z,59.06
2022-12-08T11:53:40.634Z,59.16
2022-12-08T11:56:18.021Z,59.21
2022-12-08T11:58:49.623Z,59.66
2022-12-08T12:01:21.209Z,59.25
2022-12-08T12:04:00.670Z,59.68
2022-12-08T12:06:56.278Z,59.17
2022-12-08T12:09:36.461Z,59.62
2022-12-08T12:12:17.019Z,59.01
2022-12-08T12:15:21.235Z,59.54
2022-12-08T12:17:54.327Z,60.53
2022-12-08T12:20:28.056Z,60.23
2022-12-08T12:23:02.855Z,60.18
2022-12-08T12:25:34.043Z,60.36
2022-12-08T12:28:04.672Z,60.72
2022-12-08T12:30:50.845Z,60.56
2022-12-08T12:33:19.814Z,61.21
2022-12-08T12:35:49.174Z,60.99
2022-12-08T12:38:42.086Z,60.99
2022-12-08T12:41:14.426Z,61.22
2022-12-08T12:44:09.876Z,61.22
2022-12-08T12:46:57.653Z,61.07
2022-12-08T12:49:52.058Z,61.04
2022-12-08T12:52:46.369Z,60.52
2022-12-08T12:55:52.230Z,60.86
2022-12-08T12:58:37.619Z,61.03
2022-12-08T13:01:51.775Z,60.55
2022-12-08T13:04:20.294Z,60.67
2022-12-08T13:06:51.459Z,60.54
2022-12-08T13:09:28.342Z,60.22
2022-12-08T13:11:59.338Z,60.67
2022-12-08T13:14:35.161Z,60.94
2022-12-08T13:17:06.320Z,60.67
2022-12-08T13:19:36.716Z,59.95
2022-12-08T13:22:04.911Z,60.33
2022-12-08T13:24:36.006Z,60.36
2022-12-08T13:27:36.189Z,59.95
2022-12-08T13:30:41.423Z,60.00
2022-12-08T13:33:18.984Z,59.74
2022-12-08T13:35:54.728Z,60.05
2022-12-08T13:38:27.639Z,60.42
2022-12-08T13:40:58.244Z,60.58
2022-12-08T13:43:48.452Z,60.88
2022-12-08T13:56:51.626Z,61.54
2022-12-08T13:58:19.240Z,62.07
2022-12-08T14:01:04.110Z,61.39
2022-12-08T14:03:35.543Z,61.40
2022-12-08T14:06:13.544Z,62.37
2022-12-08T14:09:01.213Z,62.04
2022-12-08T14:11:35.820Z,62.26
2022-12-08T14:14:06.844Z,63.34
2022-12-08T14:16:38.771Z,63.82
2022-12-08T14:19:15.852Z,62.97
2022-12-08T14:21:47.934Z,63.11
2022-12-08T14:24:15.935Z,63.01
2022-12-08T14:26:54.266Z,63.06
2022-12-08T14:29:45.180Z,63.43
2022-12-08T14:32:31.607Z,64.19
2022-12-08T14:35:03.383Z,64.19
2022-12-08T14:37:34.552Z,63.93
2022-12-08T14:40:05.613Z,64.12
2022-12-08T14:42:44.768Z,64.48
2022-12-08T14:45:15.197Z,64.60
2022-12-08T14:47:43.601Z,64.36
2022-12-08T14:50:45.788Z,64.70
2022-12-08T14:53:19.008Z,64.54
2022-12-08T14:55:48.734Z,64.40
2022-12-08T14:58:24.204Z,64.90
2022-12-08T15:00:54.644Z,65.50
2022-12-08T15:03:24.851Z,65.59
2022-12-08T15:05:53.921Z,66.51
2022-12-08T15:08:23.664Z,66.96
2022-12-08T15:11:25.751Z,67.20
2022-12-08T15:13:54.466Z,67.07
2022-12-08T15:16:28.691Z,66.84
2022-12-08T15:19:06.444Z,67.95
2022-12-08T15:21:39.091Z,67.59
2022-12-08T15:24:12.635Z,67.74
2022-12-08T15:26:43.450Z,67.58
2022-12-08T15:29:13.375Z,68.49
2022-12-08T15:31:41.562Z,69.63
2022-12-08T15:34:09.688Z,68.74
2022-12-08T15:36:38.338Z,67.37
2022-12-08T15:39:14.807Z,67.62
2022-12-08T15:41:42.856Z,68.07
2022-12-08T15:44:11.104Z,67.54
2022-12-08T15:46:39.283Z,68.56
2022-12-08T15:49:07.490Z,68.89
2022-12-08T15:51:36.871Z,68.60
2022-12-08T15:54:05.112Z,67.95
2022-12-08T15:56:45.287Z,67.92
2022-12-08T15:59:25.444Z,68.35
2022-12-08T16:01:53.961Z,67.88
2022-12-08T16:07:22.627Z,68.07
2022-12-08T16:09:51.106Z,67.37
2022-12-08T16:18:23.970Z,68.91
2022-12-08T16:21:19.042Z,68.12
2022-12-08T16:23:43.595Z,68.78
2022-12-08T16:26:35.546Z,69.37
2022-12-08T16:29:03.896Z,68.52
2022-12-08T16:31:32.003Z,68.35
2022-12-08T16:34:00.109Z,68.76
2022-12-08T16:36:28.368Z,68.67
2022-12-08T16:38:56.409Z,68.78
2022-12-08T16:41:41.967Z,68.32
2022-12-08T16:44:11.552Z,68.57
2022-12-08T16:46:39.828Z,69.49
2022-12-08T16:49:10.110Z,69.59
2022-12-08T16:51:38.141Z,70.57
2022-12-08T16:54:06.408Z,71.38
2022-12-08T16:56:34.429Z,71.79
2022-12-08T16:59:03.010Z,72.30
2022-12-08T17:01:32.609Z,73.39
2022-12-08T17:04:29.922Z,72.79
2022-12-08T17:06:50.931Z,72.55
2022-12-08T17:09:19.012Z,72.08
2022-12-08T17:11:49.207Z,71.69
2022-12-08T17:14:17.462Z,71.02
2022-12-08T17:16:47.234Z,71.41
2022-12-08T17:19:16.301Z,70.32
2022-12-08T17:21:45.187Z,69.95
2022-12-08T17:24:15.981Z,69.98
2022-12-08T17:26:48.360Z,70.11
2022-12-08T17:29:18.682Z,70.27
2022-12-08T17:31:50.878Z,69.60
2022-12-08T17:34:21.266Z,69.37
2022-12-08T17:36:49.338Z,68.61
2022-12-08T17:39:18.930Z,68.07
2022-12-08T17:41:47.672Z,68.23
2022-12-08T17:44:18.555Z,69.41
2022-12-08T17:46:52.547Z,69.43
2022-12-08T17:49:25.018Z,69.80
2022-12-08T17:51:55.544Z,69.84
2022-12-08T17:54:23.794Z,69.05
2022-12-08T17:56:52.072Z,67.51
2022-12-08T17:59:20.373Z,67.84
2022-12-08T18:01:48.493Z,67.73
2022-12-08T18:04:16.594Z,67.85
2022-12-08T18:06:46.425Z,69.58
2022-12-08T18:09:17.059Z,71.02
2022-12-08T18:11:46.333Z,71.46
2022-12-08T18:14:15.263Z,71.99
2022-12-08T18:16:45.721Z,72.66
2022-12-08T18:19:14.800Z,72.61
2022-12-08T18:21:45.475Z,72.21
2022-12-08T18:24:19.015Z,72.79
2022-12-08T18:26:47.303Z,72.47
2022-12-08T18:29:15.499Z,71.34
2022-12-08T18:31:43.697Z,71.53
2022-12-08T18:34:12.133Z,71.24
2022-12-08T18:36:40.157Z,71.22
2022-12-08T18:39:22.699Z,70.55
2022-12-08T18:41:51.287Z,70.63
2022-12-08T18:44:19.645Z,72.73
2022-12-08T18:46:47.776Z,72.67
2022-12-08T18:49:18.830Z,73.36
2022-12-08T18:51:47.708Z,72.32
2022-12-08T18:54:17.269Z,72.33
2022-12-08T18:56:45.226Z,72.47
2022-12-08T18:59:14.129Z,73.05
2022-12-08T19:01:42.686Z,73.07
2022-12-08T19:04:28.544Z,73.00
2022-12-08T19:06:58.181Z,74.94
2022-12-08T19:09:29.009Z,73.99
2022-12-08T19:11:58.046Z,73.26
2022-12-08T19:14:28.498Z,72.56
2022-12-08T19:16:56.862Z,73.41
2022-12-08T19:19:25.019Z,73.98
2022-12-08T19:21:53.216Z,74.51
2022-12-08T19:24:21.286Z,73.96
2022-12-08T19:26:53.126Z,73.40
2022-12-08T19:29:21.230Z,72.75
2022-12-08T19:31:49.351Z,72.36
2022-12-08T19:34:17.723Z,72.91
2022-12-08T19:36:46.108Z,75.13
2022-12-08T19:39:34.199Z,75.77
2022-12-08T19:42:21.521Z,76.89
2022-12-08T19:44:55.540Z,74.68
2022-12-08T19:47:25.363Z,73.79
2022-12-08T19:49:54.834Z,72.64
2022-12-08T19:52:25.129Z,72.70
2022-12-08T19:54:53.137Z,71.67
2022-12-08T19:57:22.680Z,71.22
2022-12-08T19:59:56.406Z,71.43
2022-12-08T20:02:24.766Z,71.83
2022-12-08T20:04:52.813Z,72.36
2022-12-08T20:07:21.129Z,72.71
2022-12-08T20:09:49.167Z,72.54
2022-12-08T20:12:17.210Z,72.80
2022-12-08T20:14:46.732Z,72.88
2022-12-08T20:17:20.445Z,73.08
2022-12-08T20:19:48.442Z,72.88
2022-12-08T20:22:16.394Z,72.67
2022-12-08T20:24:44.431Z,72.52
2022-12-08T20:27:12.443Z,72.27
2022-12-08T20:29:40.437Z,72.38
2022-12-08T20:32:09.862Z,71.85
2022-12-08T20:34:37.865Z,72.18
2022-12-08T20:37:05.862Z,72.18
2022-12-08T20:39:36.818Z,71.91
2022-12-08T20:42:04.956Z,71.72
2022-12-08T20:44:35.951Z,71.64
2022-12-08T20:47:04.066Z,71.39
2022-12-08T20:49:34.955Z,71.42
2022-12-08T20:52:06.792Z,71.58
2022-12-08T20:54:35.244Z,71.08
2022-12-08T20:57:03.290Z,71.16
2022-12-08T20:59:31.559Z,70.89
2022-12-08T21:02:00.449Z,72.16
2022-12-08T21:04:28.992Z,72.40
2022-12-08T21:06:58.732Z,72.15
2022-12-08T21:09:27.021Z,71.72
2022-12-08T21:11:55.227Z,71.61
2022-12-08T21:14:23.337Z,70.61
2022-12-08T21:16:51.598Z,70.72
2022-12-08T21:19:20.111Z,70.71
2022-12-08T21:21:51.657Z,70.51
2022-12-08T21:24:25.508Z,70.70
2022-12-08T21:26:57.148Z,70.61
2022-12-08T21:29:25.452Z,70.00
2022-12-08T21:31:58.769Z,70.34
2022-12-08T21:34:32.010Z,70.03
2022-12-08T21:37:00.329Z,70.06
2022-12-08T21:39:29.853Z,70.78
2022-12-08T21:42:17.471Z,71.01
2022-12-08T21:44:46.818Z,70.89
2022-12-08T21:47:15.098Z,70.79
2022-12-08T21:49:43.486Z,70.32
2022-12-08T21:52:11.659Z,69.80
2022-12-08T21:54:41.178Z,69.88
2022-12-08T21:57:09.605Z,70.63
2022-12-08T21:59:37.758Z,70.84
2022-12-08T22:02:08.363Z,70.21
2022-12-08T22:04:36.739Z,70.94
2022-12-08T22:07:05.022Z,71.15
2022-12-08T22:09:33.358Z,70.86
2022-12-08T22:12:02.890Z,69.86
2022-12-08T22:14:31.069Z,70.67
2022-12-08T22:16:59.535Z,73.01
2022-12-08T22:19:27.800Z,73.00
2022-12-08T22:21:55.917Z,72.32
2022-12-08T22:24:24.123Z,71.87
2022-12-08T22:26:54.935Z,71.50
2022-12-08T22:29:24.523Z,70.90
2022-12-08T22:31:52.806Z,71.11
2022-12-08T22:34:21.129Z,70.69
2022-12-08T22:36:49.972Z,70.79
2022-12-08T22:39:18.443Z,71.17
2022-12-08T22:41:46.517Z,71.04
2022-12-08T22:44:16.359Z,71.12
2022-12-08T22:46:46.202Z,70.98
2022-12-08T22:49:14.411Z,71.25
2022-12-08T22:51:42.480Z,71.75
2022-12-08T22:54:11.704Z,72.56
2022-12-08T22:56:39.879Z,72.32
2022-12-08T22:59:08.322Z,72.03
2022-12-08T23:01:37.426Z,73.48
2022-12-08T23:04:09.191Z,73.63
2022-12-08T23:06:40.708Z,73.97
2022-12-08T23:09:08.933Z,73.75
2022-12-08T23:11:37.552Z,72.43
2022-12-08T23:14:05.578Z,72.92
2022-12-08T23:16:33.787Z,72.62
2022-12-08T23:19:02.304Z,74.18
2022-12-08T23:21:31.797Z,74.12
2022-12-08T23:24:02.205Z,74.07
2022-12-08T23:26:32.178Z,73.56
2022-12-08T23:29:01.172Z,74.22
2022-12-08T23:31:29.759Z,73.86
2022-12-08T23:34:00.831Z,72.70
2022-12-08T23:36:28.917Z,71.87
2022-12-08T23:38:58.866Z,71.61
2022-12-08T23:41:27.017Z,70.75
2022-12-08T23:43:55.004Z,71.44
2022-12-08T23:46:24.596Z,71.25
2022-12-08T23:48:55.589Z,71.35
2022-12-08T23:51:23.710Z,71.04
2022-12-08T23:53:51.926Z,70.26
2022-12-08T23:56:23.265Z,70.29
2022-12-08T23:58:54.949Z,69.85
